Time;durP1;ratioP1;P1;durP2;ratioP2;P2;SDS_P1;SDS_P2;PMS_P1;PMS_P2;Temp;Humidity;BMP_temperature;BMP_pressure;BME280_temperature;BME280_humidity;BME280_pressure;Samples;Min_cycle;Max_cycle;Signal;HPM_P1;HPM_P2
2022/09/27 00:00:00;;;;;;;4.87;1.27;;;15.60;99.90;;;;;;1039119;28;20604;-75
2022/09/27 00:00:30;;;;;;;1.67;1.00;;;15.60;99.90;;;;;;1039564;28;20014;-73
2022/09/27 00:01:03;;;;;;;1.77;0.70;;;15.60;99.90;;;;;;1038488;28;20017;-75
2022/09/27 00:01:34;;;;;;;3.63;0.90;;;15.60;99.90;;;;;;1035025;28;20010;-73
2022/09/27 00:02:04;;;;;;;1.20;0.83;;;15.60;99.90;;;;;;1031653;28;20026;-74
2022/09/27 00:02:35;;;;;;;2.57;0.93;;;15.60;99.90;;;;;;1030991;28;20130;-74
2022/09/27 00:03:05;;;;;;;3.97;0.90;;;15.60;99.90;;;;;;1033886;28;20062;-75
2022/09/27 00:03:36;;;;;;;2.63;0.90;;;15.60;99.90;;;;;;1038637;28;20517;-74
2022/09/27 00:04:07;;;;;;;1.50;0.80;;;15.60;99.90;;;;;;1034298;28;20175;-74
2022/09/27 00:04:37;;;;;;;5.47;1.20;;;15.60;99.90;;;;;;1032813;28;20016;-73
2022/09/27 00:05:08;;;;;;;2.37;1.20;;;15.60;99.90;;;;;;1038135;28;20016;-74
2022/09/27 00:05:39;;;;;;;2.27;1.10;;;15.60;99.90;;;;;;1039865;28;20028;-75
2022/09/27 00:06:25;;;;;;;3.28;1.33;;;15.60;99.90;;;;;;1038931;28;20021;-74
2022/09/27 00:06:56;;;;;;;2.75;0.90;;;15.60;99.90;;;;;;1039519;28;20125;-75
2022/09/27 00:07:26;;;;;;;2.67;1.00;;;15.60;99.90;;;;;;1038770;28;20540;-73
2022/09/27 00:07:57;;;;;;;0.97;0.67;;;15.60;99.90;;;;;;1038265;28;20437;-73
2022/09/27 00:08:27;;;;;;;3.03;0.77;;;15.60;99.90;;;;;;1035218;28;20017;-75
2022/09/27 00:08:59;;;;;;;2.13;0.70;;;15.60;99.90;;;;;;1034541;28;20041;-74
2022/09/27 00:09:29;;;;;;;2.10;1.23;;;15.60;99.90;;;;;;1035121;28;20026;-75
2022/09/27 00:10:00;;;;;;;1.43;0.73;;;15.50;99.90;;;;;;1034438;28;20018;-74
2022/09/27 00:10:30;;;;;;;1.83;0.80;;;15.50;99.90;;;;;;1034594;28;20362;-75
2022/09/27 00:11:22;;;;;;;2.80;0.70;;;15.50;99.90;;;;;;1035693;28;20283;-73
2022/09/27 00:11:52;;;;;;;1.58;0.80;;;15.60;99.90;;;;;;1034606;28;20066;-73
2022/09/27 00:12:23;;;;;;;2.00;0.80;;;15.50;99.90;;;;;;1035490;28;20006;-74
2022/09/27 00:12:54;;;;;;;1.07;0.83;;;15.50;99.90;;;;;;1038425;28;20476;-74
2022/09/27 00:13:24;;;;;;;2.20;0.80;;;15.50;99.90;;;;;;1038676;28;20017;-73
2022/09/27 00:13:57;;;;;;;2.33;0.97;;;15.50;99.90;;;;;;1035079;28;20022;-75
2022/09/27 00:14:28;;;;;;;1.67;0.93;;;15.50;99.90;;;;;;1034077;28;20084;-75
2022/09/27 00:14:59;;;;;;;2.13;0.80;;;15.50;99.90;;;;;;1035357;28;20069;-75
2022/09/27 00:15:30;;;;;;;3.63;1.05;;;15.50;99.90;;;;;;1034362;28;20068;-74
2022/09/27 00:16:05;;;;;;;1.87;1.17;;;15.50;99.90;;;;;;1035342;28;20073;-75
2022/09/27 00:16:38;;;;;;;1.65;0.70;;;15.50;99.90;;;;;;1036150;28;20025;-74
2022/09/27 00:17:09;;;;;;;1.70;0.68;;;15.50;99.90;;;;;;1034786;28;20083;-75
2022/09/27 00:17:40;;;;;;;3.58;0.88;;;15.50;99.90;;;;;;1037093;28;20017;-74
2022/09/27 00:18:10;;;;;;;2.33;1.00;;;15.50;99.90;;;;;;1039030;28;20112;-76
2022/09/27 00:18:41;;;;;;;2.43;0.80;;;15.50;99.90;;;;;;1039651;28;20252;-74
2022/09/27 00:19:17;;;;;;;2.37;0.80;;;15.50;99.90;;;;;;1038808;28;20037;-74
2022/09/27 00:19:48;;;;;;;1.48;0.73;;;15.50;99.90;;;;;;1038285;28;20124;-74
2022/09/27 00:20:20;;;;;;;2.40;0.77;;;15.50;99.90;;;;;;1039476;28;20021;-75
2022/09/27 00:20:50;;;;;;;3.03;1.00;;;15.50;99.90;;;;;;1034350;28;20033;-75
2022/09/27 00:21:21;;;;;;;2.77;1.00;;;15.50;99.90;;;;;;1027992;28;20015;-75
2022/09/27 00:21:51;;;;;;;4.33;1.10;;;15.50;99.90;;;;;;1033515;28;20022;-74
2022/09/27 00:22:23;;;;;;;1.73;0.90;;;15.50;99.90;;;;;;1033727;28;20041;-75
2022/09/27 00:22:53;;;;;;;1.63;0.70;;;15.50;99.90;;;;;;1038956;28;20087;-75
2022/09/27 00:23:24;;;;;;;1.40;0.80;;;15.50;99.90;;;;;;1038911;28;20018;-74
2022/09/27 00:23:54;;;;;;;1.27;0.77;;;15.50;99.90;;;;;;1039740;28;20018;-75
2022/09/27 00:24:25;;;;;;;2.17;1.00;;;15.50;99.90;;;;;;1038722;28;20022;-74
2022/09/27 00:24:55;;;;;;;1.43;0.90;;;15.50;99.90;;;;;;1038488;28;20517;-75
2022/09/27 00:25:26;;;;;;;1.87;0.80;;;15.50;99.90;;;;;;1035278;28;20014;-74
2022/09/27 00:25:57;;;;;;;1.23;0.80;;;15.50;99.90;;;;;;1032652;28;20029;-73
2022/09/27 00:26:28;;;;;;;0.68;0.60;;;15.50;99.90;;;;;;1031164;28;20052;-74
2022/09/27 00:26:59;;;;;;;1.17;0.60;;;15.50;99.90;;;;;;1034921;28;20018;-74
2022/09/27 00:27:29;;;;;;;2.27;1.10;;;15.50;99.90;;;;;;1039165;28;20024;-75
2022/09/27 00:28:00;;;;;;;2.73;0.77;;;15.50;99.90;;;;;;1043190;28;20017;-75
2022/09/27 00:28:31;;;;;;;3.43;1.10;;;15.50;99.90;;;;;;1037970;28;20076;-73
2022/09/27 00:29:02;;;;;;;2.17;0.82;;;15.50;99.90;;;;;;1034629;28;20140;-74
2022/09/27 00:29:32;;;;;;;1.87;0.97;;;15.50;99.90;;;;;;1038943;28;20017;-75
2022/09/27 00:30:03;;;;;;;1.37;0.60;;;15.40;99.90;;;;;;1037696;28;20547;-75
2022/09/27 00:30:34;;;;;;;0.97;0.77;;;15.50;99.90;;;;;;1035752;28;20022;-74
2022/09/27 00:31:15;;;;;;;2.27;0.60;;;15.50;99.90;;;;;;1037389;28;20272;-74
2022/09/27 00:31:46;;;;;;;3.15;0.95;;;15.50;99.90;;;;;;1038520;28;20018;-75
2022/09/27 00:32:17;;;;;;;2.70;0.80;;;15.50;99.90;;;;;;1038699;28;20029;-74
2022/09/27 00:32:48;;;;;;;1.57;0.70;;;15.50;99.90;;;;;;1038677;28;20108;-75
2022/09/27 00:33:19;;;;;;;1.70;0.97;;;15.50;99.90;;;;;;1039814;28;20018;-74
2022/09/27 00:33:51;;;;;;;1.27;0.60;;;15.50;99.90;;;;;;1038920;28;20040;-75
2022/09/27 00:34:24;;;;;;;1.15;0.60;;;15.50;99.90;;;;;;1038779;28;20662;-75
2022/09/27 00:34:55;;;;;;;1.60;0.90;;;15.50;99.90;;;;;;1038519;28;20017;-73
2022/09/27 00:35:25;;;;;;;3.70;0.90;;;15.50;99.90;;;;;;1034178;28;20010;-75
2022/09/27 00:36:04;;;;;;;1.67;0.70;;;15.50;99.90;;;;;;1030006;28;20103;-75
2022/09/27 00:36:34;;;;;;;2.15;0.93;;;15.50;99.90;;;;;;1030437;28;20711;-73
2022/09/27 00:37:05;;;;;;;0.80;0.70;;;15.50;99.90;;;;;;1034794;28;20629;-74
2022/09/27 00:37:35;;;;;;;3.13;0.90;;;15.50;99.90;;;;;;1038391;28;20017;-74
2022/09/27 00:38:06;;;;;;;3.63;0.80;;;15.50;99.90;;;;;;1042318;28;20362;-74
2022/09/27 00:38:36;;;;;;;1.13;0.63;;;15.50;99.90;;;;;;1038289;28;20113;-73
2022/09/27 00:39:08;;;;;;;3.33;0.87;;;15.50;99.90;;;;;;1034351;28;20022;-75
2022/09/27 00:39:38;;;;;;;2.50;0.70;;;15.50;99.90;;;;;;1038948;28;20025;-75
2022/09/27 00:40:09;;;;;;;2.83;0.70;;;15.50;99.90;;;;;;1034771;28;20081;-75
2022/09/27 00:40:40;;;;;;;1.10;0.70;;;15.50;99.90;;;;;;1034348;28;20160;-75
2022/09/27 00:41:16;;;;;;;2.60;0.90;;;15.50;99.90;;;;;;1031101;28;20015;-74
2022/09/27 00:41:47;;;;;;;2.28;0.75;;;15.50;99.90;;;;;;1030307;28;20019;-74
2022/09/27 00:42:18;;;;;;;1.93;0.60;;;15.50;99.90;;;;;;1035537;28;20050;-74
2022/09/27 00:42:48;;;;;;;1.37;0.93;;;15.50;99.90;;;;;;1038287;28;20075;-74
2022/09/27 00:43:22;;;;;;;2.50;0.87;;;15.50;99.90;;;;;;1036703;28;20665;-75
2022/09/27 00:43:55;;;;;;;2.85;0.75;;;15.50;99.90;;;;;;1037956;28;20149;-74
2022/09/27 00:44:26;;;;;;;1.17;0.65;;;15.40;99.90;;;;;;1038414;28;20104;-73
2022/09/27 00:45:01;;;;;;;1.97;0.80;;;15.40;99.90;;;;;;1039547;28;20013;-74
2022/09/27 00:45:32;;;;;;;1.27;0.70;;;15.50;99.90;;;;;;1032881;28;20025;-75
2022/09/27 00:46:03;;;;;;;0.93;0.50;;;15.40;99.90;;;;;;1035085;28;20057;-72
2022/09/27 00:46:46;;;;;;;1.55;0.65;;;15.50;99.90;;;;;;1038262;28;20067;-74
2022/09/27 00:47:30;;;;;;;4.18;1.17;;;15.50;99.90;;;;;;1037056;28;20037;-72
2022/09/27 00:48:05;;;;;;;2.30;0.80;;;15.50;99.90;;;;;;1030681;28;20025;-75
2022/09/27 00:48:36;;;;;;;3.75;0.90;;;15.50;99.90;;;;;;1030788;28;20014;-73
2022/09/27 00:49:22;;;;;;;1.70;0.90;;;15.40;99.90;;;;;;1038347;28;20033;-74
2022/09/27 00:50:02;;;;;;;1.60;0.77;;;15.50;99.90;;;;;;1035020;28;20010;-74
2022/09/27 00:50:39;;;;;;;1.25;0.57;;;15.50;99.90;;;;;;1034476;28;20101;-73
2022/09/27 00:51:09;;;;;;;2.90;0.90;;;15.50;99.90;;;;;;1036774;28;20046;-73
2022/09/27 00:51:43;;;;;;;1.57;0.70;;;15.50;99.90;;;;;;1039376;28;20037;-73
2022/09/27 00:52:20;;;;;;;2.58;1.00;;;15.40;99.90;;;;;;1038502;28;20024;-74
2022/09/27 00:53:11;;;;;;;2.08;0.95;;;15.50;99.90;;;;;;1039062;28;20056;-74
2022/09/27 00:53:48;;;;;;;1.92;0.75;;;15.50;99.90;;;;;;1038932;28;20021;-73
2022/09/27 00:54:20;;;;;;;2.63;0.52;;;15.50;99.90;;;;;;1038653;28;20014;-74
2022/09/27 00:54:55;;;;;;;1.60;0.90;;;15.50;99.90;;;;;;1038683;28;20021;-74
2022/09/27 00:55:33;;;;;;;1.17;0.60;;;15.40;99.90;;;;;;1039619;28;20097;-74
2022/09/27 00:56:10;;;;;;;1.85;0.77;;;15.50;99.90;;;;;;1038673;28;20020;-73
2022/09/27 00:56:42;;;;;;;3.40;1.10;;;15.40;99.90;;;;;;1039575;28;20022;-73
2022/09/27 00:57:12;;;;;;;2.40;0.60;;;15.40;99.90;;;;;;1038875;28;20022;-73
2022/09/27 00:57:45;;;;;;;2.20;0.70;;;15.40;99.90;;;;;;1038455;28;20159;-72
2022/09/27 00:58:20;;;;;;;2.20;0.80;;;15.40;99.90;;;;;;1039591;28;20109;-73
2022/09/27 00:58:59;;;;;;;3.05;1.00;;;15.40;99.90;;;;;;1038510;28;20045;-75
2022/09/27 00:59:38;;;;;;;0.63;0.60;;;15.40;99.90;;;;;;1039156;28;20044;-75
2022/09/27 01:00:11;;;;;;;1.35;0.70;;;15.40;99.90;;;;;;1038415;28;20026;-76
2022/09/27 01:00:46;;;;;;;1.05;0.60;;;15.40;99.90;;;;;;1039651;28;20021;-74
2022/09/27 01:01:16;;;;;;;1.85;0.80;;;15.40;99.90;;;;;;1038846;28;20025;-74
2022/09/27 01:01:49;;;;;;;1.10;0.80;;;15.40;99.90;;;;;;1036869;28;20124;-72
2022/09/27 01:02:20;;;;;;;1.88;0.90;;;15.40;99.90;;;;;;1034344;28;20018;-74
2022/09/27 01:02:53;;;;;;;1.57;0.63;;;15.40;99.90;;;;;;1033699;28;20059;-72
2022/09/27 01:04:10;;;;;;;1.67;0.90;;;15.30;99.90;;;;;;1035840;28;20014;-74
2022/09/27 01:04:42;;;;;;;1.88;0.60;;;15.40;99.90;;;;;;1030831;28;20058;-74
2022/09/27 01:05:15;;;;;;;2.90;0.98;;;15.40;99.90;;;;;;1025858;28;20085;-73
2022/09/27 01:05:46;;;;;;;1.95;0.73;;;15.40;99.90;;;;;;1034675;28;20038;-74
2022/09/27 01:06:19;;;;;;;2.80;0.85;;;15.40;99.90;;;;;;1030831;28;20022;-72
2022/09/27 01:06:50;;;;;;;2.75;0.80;;;15.30;99.90;;;;;;1034134;28;20010;-74
2022/09/27 01:07:21;;;;;;;1.60;0.70;;;15.30;99.90;;;;;;1039437;28;20005;-76
2022/09/27 01:07:55;;;;;;;4.07;1.53;;;15.30;99.90;;;;;;1038249;28;20022;-75
2022/09/27 01:08:25;;;;;;;0.77;0.47;;;15.30;99.90;;;;;;1039111;28;20018;-75
2022/09/27 01:08:56;;;;;;;1.73;0.60;;;15.30;99.90;;;;;;1034499;28;20030;-75
2022/09/27 01:09:28;;;;;;;3.00;0.60;;;15.30;99.90;;;;;;1034409;28;20076;-75
2022/09/27 01:09:58;;;;;;;1.20;0.65;;;15.30;99.90;;;;;;1031181;28;20033;-75
2022/09/27 01:10:37;;;;;;;1.10;0.80;;;15.30;99.90;;;;;;1032459;28;20037;-76
2022/09/27 01:11:16;;;;;;;0.88;0.60;;;15.30;99.90;;;;;;1038973;28;20022;-75
2022/09/27 01:12:15;;;;;;;1.92;0.60;;;15.40;99.90;;;;;;1035524;28;20065;-76
2022/09/27 01:13:20;;;;;;;0.82;0.65;;;15.40;99.90;;;;;;1035573;28;20124;-72
2022/09/27 01:14:05;;;;;;;2.17;1.00;;;15.30;99.90;;;;;;1031861;28;20748;-75
2022/09/27 01:14:52;;;;;;;1.65;0.50;;;15.40;99.90;;;;;;1036921;28;20096;-75
2022/09/27 01:15:44;;;;;;;1.77;0.70;;;15.40;99.90;;;;;;1035419;28;20064;-75
2022/09/27 01:16:40;;;;;;;1.00;0.57;;;15.40;99.90;;;;;;1037049;28;20045;-75
2022/09/27 01:18:07;;;;;;;2.85;0.70;;;15.40;99.90;;;;;;1033931;28;20018;-73
2022/09/27 01:18:51;;;;;;;2.67;0.60;;;15.30;99.90;;;;;;1022935;29;20034;-75
2022/09/27 01:19:56;;;;;;;2.17;0.80;;;15.30;99.90;;;;;;1026821;28;20485;-74
2022/09/27 01:20:46;;;;;;;3.83;1.10;;;15.30;99.90;;;;;;1027520;28;20007;-75
2022/09/27 01:21:47;;;;;;;1.95;0.63;;;15.30;99.90;;;;;;1029659;28;20033;-75
2022/09/27 01:22:42;;;;;;;1.50;0.80;;;15.30;99.90;;;;;;1030396;28;20019;-75
2022/09/27 01:23:50;;;;;;;0.95;0.70;;;15.30;99.90;;;;;;1031288;28;20026;-74
2022/09/27 01:24:49;;;;;;;1.02;0.63;;;15.30;99.90;;;;;;1034275;28;20026;-74
2022/09/27 01:26:02;;;;;;;1.38;0.82;;;15.30;99.90;;;;;;1035305;28;20112;-74
2022/09/27 01:27:00;;;;;;;1.48;0.70;;;15.30;99.90;;;;;;1035740;28;20046;-74
2022/09/27 01:27:54;;;;;;;2.03;0.77;;;15.30;99.90;;;;;;1039541;28;20436;-76
2022/09/27 01:28:45;;;;;;;0.60;0.55;;;15.30;99.90;;;;;;1037548;28;20033;-74
2022/09/27 01:29:35;;;;;;;1.45;0.60;;;15.30;99.90;;;;;;1036315;28;20648;-75
2022/09/27 01:30:13;;;;;;;2.40;0.60;;;15.30;99.90;;;;;;1039154;28;20017;-72
2022/09/27 01:30:52;;;;;;;1.17;0.60;;;15.30;99.90;;;;;;1039941;28;20058;-74
2022/09/27 01:31:51;;;;;;;1.00;0.60;;;15.30;99.90;;;;;;1038925;28;20120;-73
2022/09/27 01:32:37;;;;;;;1.27;0.73;;;15.30;99.90;;;;;;1031099;28;20022;-73
2022/09/27 01:33:32;;;;;;;1.60;1.13;;;15.30;99.90;;;;;;1032349;28;20022;-75
2022/09/27 01:34:28;;;;;;;1.17;0.57;;;15.30;99.90;;;;;;1035628;28;20037;-71
2022/09/27 01:35:29;;;;;;;3.63;0.80;;;15.20;99.90;;;;;;1040745;28;20048;-72
2022/09/27 01:36:25;;;;;;;1.27;0.70;;;15.20;99.90;;;;;;1043343;28;20037;-72
2022/09/27 01:37:09;;;;;;;2.00;0.90;;;15.30;99.90;;;;;;1039906;28;20176;-74
2022/09/27 01:38:10;;;;;;;2.67;0.63;;;15.20;99.90;;;;;;1038897;28;20022;-74
2022/09/27 01:39:22;;;;;;;1.48;0.65;;;15.20;99.90;;;;;;1039642;28;20045;-74
2022/09/27 01:40:01;;;;;;;1.48;0.60;;;15.20;99.90;;;;;;1034494;28;20018;-74
2022/09/27 01:40:58;;;;;;;2.00;0.80;;;15.20;99.90;;;;;;1038442;28;20488;-73
2022/09/27 01:41:45;;;;;;;0.60;0.60;;;15.20;99.90;;;;;;1040157;28;20122;-74
2022/09/27 01:42:24;;;;;;;1.55;0.60;;;15.20;99.90;;;;;;1039205;28;20022;-75
2022/09/27 01:42:57;;;;;;;2.83;1.02;;;15.20;99.90;;;;;;1039004;28;20393;-73
2022/09/27 01:43:48;;;;;;;1.15;0.63;;;15.20;99.90;;;;;;1037617;28;20407;-73
2022/09/27 01:44:46;;;;;;;2.50;0.85;;;15.20;99.90;;;;;;1031034;28;20019;-73
2022/09/27 01:45:34;;;;;;;3.30;0.70;;;15.20;99.90;;;;;;1033950;28;20015;-74
2022/09/27 01:46:29;;;;;;;2.15;0.90;;;15.20;99.90;;;;;;1034763;28;20115;-75
2022/09/27 01:47:04;;;;;;;3.03;1.35;;;15.20;99.90;;;;;;1028207;28;20487;-73
2022/09/27 01:47:43;;;;;;;1.55;0.60;;;15.20;99.90;;;;;;1027722;28;20031;-73
2022/09/27 01:48:21;;;;;;;2.13;0.68;;;15.20;99.90;;;;;;1030949;28;20145;-74
2022/09/27 01:48:53;;;;;;;1.58;0.60;;;15.10;99.90;;;;;;1040266;28;20017;-74
2022/09/27 01:49:38;;;;;;;2.33;0.80;;;15.20;99.90;;;;;;1043471;28;20009;-74
2022/09/27 01:50:17;;;;;;;0.90;0.70;;;15.10;99.90;;;;;;1038841;28;20037;-74
2022/09/27 01:51:00;;;;;;;1.40;0.70;;;15.20;99.90;;;;;;1031012;28;20418;-74
2022/09/27 01:51:39;;;;;;;2.97;0.70;;;15.20;99.90;;;;;;1031244;28;20087;-72
2022/09/27 01:52:14;;;;;;;3.17;0.80;;;15.20;99.90;;;;;;1037354;28;20017;-74
2022/09/27 01:52:52;;;;;;;2.38;0.73;;;15.20;99.90;;;;;;1034356;28;20053;-72
2022/09/27 01:53:31;;;;;;;2.83;0.73;;;15.20;99.90;;;;;;1035048;28;20086;-75
2022/09/27 01:54:04;;;;;;;2.80;0.82;;;15.20;99.90;;;;;;1039044;28;20064;-73
2022/09/27 01:54:42;;;;;;;1.88;0.68;;;15.20;99.90;;;;;;1040208;28;20022;-74
2022/09/27 01:55:16;;;;;;;2.28;0.80;;;15.20;99.90;;;;;;1038963;28;20013;-72
2022/09/27 01:55:49;;;;;;;0.95;0.75;;;15.20;99.90;;;;;;1037025;28;20021;-74
2022/09/27 01:56:31;;;;;;;2.40;0.68;;;15.20;99.90;;;;;;1035253;28;20068;-74
2022/09/27 01:57:04;;;;;;;1.70;0.47;;;15.20;99.90;;;;;;1039056;28;20021;-74
2022/09/27 01:57:39;;;;;;;2.33;0.50;;;15.30;99.90;;;;;;1039266;28;20013;-72
2022/09/27 01:58:23;;;;;;;0.90;0.80;;;15.20;99.90;;;;;;1039905;28;20461;-72
2022/09/27 01:59:29;;;;;;;1.83;0.65;;;15.30;99.90;;;;;;1032771;28;20027;-73
2022/09/27 02:00:05;;;;;;;0.82;0.50;;;15.30;99.90;;;;;;1037283;28;20034;-75
2022/09/27 02:00:39;;;;;;;0.88;0.55;;;15.30;99.90;;;;;;1034983;28;20037;-75
2022/09/27 02:01:11;;;;;;;1.83;0.80;;;15.20;99.90;;;;;;1039349;28;20017;-72
2022/09/27 02:01:46;;;;;;;1.17;0.52;;;15.20;99.90;;;;;;1038706;28;20517;-73
2022/09/27 02:02:19;;;;;;;2.33;0.70;;;15.20;99.90;;;;;;1036029;28;20028;-72
2022/09/27 02:03:00;;;;;;;1.70;1.08;;;15.20;99.90;;;;;;1037667;28;20041;-73
2022/09/27 02:03:36;;;;;;;2.42;0.90;;;15.20;99.90;;;;;;1036988;28;20100;-75
2022/09/27 02:04:12;;;;;;;2.30;0.85;;;15.20;99.90;;;;;;1039343;28;20013;-74
2022/09/27 02:04:47;;;;;;;0.68;0.60;;;15.20;99.90;;;;;;1040021;28;20025;-74
2022/09/27 02:05:22;;;;;;;2.88;0.70;;;15.20;99.90;;;;;;1035330;28;20010;-75
2022/09/27 02:05:57;;;;;;;3.08;0.90;;;15.20;99.90;;;;;;1039446;28;20037;-73
2022/09/27 02:06:40;;;;;;;0.98;0.80;;;15.20;99.90;;;;;;1039474;28;20060;-74
2022/09/27 02:07:20;;;;;;;4.20;1.02;;;15.20;99.90;;;;;;1039426;28;20017;-74
2022/09/27 02:08:04;;;;;;;4.60;0.70;;;15.20;99.90;;;;;;1031329;28;20022;-75
2022/09/27 02:09:01;;;;;;;2.22;0.80;;;15.20;99.90;;;;;;1034738;28;20026;-73
2022/09/27 02:09:37;;;;;;;1.58;0.57;;;15.20;99.90;;;;;;1034742;28;20394;-74
2022/09/27 02:10:22;;;;;;;1.73;0.60;;;15.10;99.90;;;;;;1035970;28;20018;-74
2022/09/27 02:10:55;;;;;;;1.17;0.80;;;15.10;99.90;;;;;;1040138;28;20029;-74
2022/09/27 02:11:26;;;;;;;1.88;0.85;;;15.10;99.90;;;;;;1037042;28;20033;-74
2022/09/27 02:12:02;;;;;;;1.33;0.60;;;15.10;99.90;;;;;;1035333;28;20028;-74
2022/09/27 02:12:41;;;;;;;2.15;0.60;;;15.10;99.90;;;;;;1039629;28;20029;-74
2022/09/27 02:13:21;;;;;;;1.48;0.50;;;15.10;99.90;;;;;;1034833;28;20021;-73
2022/09/27 02:13:59;;;;;;;3.28;0.98;;;15.10;99.90;;;;;;1035788;28;20554;-74
2022/09/27 02:14:36;;;;;;;2.30;0.63;;;15.10;99.90;;;;;;1037453;28;20026;-72
2022/09/27 02:15:11;;;;;;;0.80;0.40;;;15.10;99.90;;;;;;1035464;28;20084;-73
2022/09/27 02:16:18;;;;;;;0.68;0.60;;;15.10;99.90;;;;;;1034969;28;20110;-74
2022/09/27 02:16:51;;;;;;;0.75;0.60;;;15.10;99.90;;;;;;1033123;28;20022;-74
2022/09/27 02:17:49;;;;;;;1.70;0.65;;;15.10;99.90;;;;;;1034904;28;20026;-74
2022/09/27 02:18:28;;;;;;;0.77;0.63;;;15.10;99.90;;;;;;1031267;28;20030;-74
2022/09/27 02:19:09;;;;;;;1.77;1.10;;;15.10;99.90;;;;;;1031577;28;20653;-74
2022/09/27 02:19:51;;;;;;;1.23;0.55;;;15.10;99.90;;;;;;1038525;28;20584;-74
2022/09/27 02:20:37;;;;;;;3.35;0.70;;;15.10;99.90;;;;;;1039180;28;20108;-73
2022/09/27 02:21:13;;;;;;;1.30;0.77;;;15.10;99.90;;;;;;1038149;28;20030;-74
2022/09/27 02:22:05;;;;;;;1.08;0.70;;;15.10;99.90;;;;;;1036888;28;20752;-74
2022/09/27 02:23:27;;;;;;;1.25;0.63;;;15.10;99.90;;;;;;1035575;28;20033;-75
2022/09/27 02:24:02;;;;;;;2.33;0.75;;;15.10;99.90;;;;;;1026746;28;20216;-74
2022/09/27 02:24:41;;;;;;;6.15;1.00;;;15.10;99.90;;;;;;1030144;28;20622;-74
2022/09/27 02:25:21;;;;;;;1.55;0.75;;;15.10;99.90;;;;;;1035290;28;20078;-74
2022/09/27 02:26:03;;;;;;;3.10;0.70;;;15.10;99.90;;;;;;1036089;28;20030;-74
2022/09/27 02:26:41;;;;;;;1.80;0.70;;;15.10;99.90;;;;;;1042189;28;20430;-74
2022/09/27 02:27:21;;;;;;;0.80;0.60;;;15.00;99.90;;;;;;1039705;28;20310;-73
2022/09/27 02:28:21;;;;;;;1.92;0.60;;;15.10;99.90;;;;;;1036228;28;20101;-74
2022/09/27 02:28:59;;;;;;;2.08;0.60;;;15.10;99.90;;;;;;1037516;28;20026;-75
2022/09/27 02:29:38;;;;;;;1.23;0.50;;;15.10;99.90;;;;;;1040938;28;20104;-74
2022/09/27 02:30:14;;;;;;;1.38;0.80;;;15.10;99.90;;;;;;1038869;28;20057;-75
2022/09/27 02:30:44;;;;;;;1.33;0.60;;;15.00;99.90;;;;;;1036224;28;20057;-73
2022/09/27 02:31:15;;;;;;;1.50;0.60;;;15.10;99.90;;;;;;1035975;28;20061;-74
2022/09/27 02:31:46;;;;;;;2.53;0.80;;;15.00;99.90;;;;;;1034701;28;20022;-75
2022/09/27 02:32:16;;;;;;;3.17;0.97;;;15.00;99.90;;;;;;1035173;28;20026;-74
2022/09/27 02:32:47;;;;;;;1.50;0.43;;;15.10;99.90;;;;;;1036177;28;20053;-75
2022/09/27 02:33:21;;;;;;;2.33;0.80;;;15.10;99.90;;;;;;1038334;28;20033;-74
2022/09/27 02:33:58;;;;;;;2.25;0.77;;;15.10;99.90;;;;;;1040396;28;20021;-74
2022/09/27 02:34:33;;;;;;;1.30;0.88;;;15.10;99.90;;;;;;1039100;28;20026;-73
2022/09/27 02:35:16;;;;;;;1.45;0.70;;;15.10;99.90;;;;;;1039848;28;20002;-74
2022/09/27 02:35:47;;;;;;;1.55;0.85;;;15.10;99.90;;;;;;1039384;28;20026;-74
2022/09/27 02:36:18;;;;;;;1.40;0.60;;;15.10;99.90;;;;;;1039971;28;20029;-74
2022/09/27 02:36:52;;;;;;;1.73;0.82;;;15.10;99.90;;;;;;1038941;28;20028;-75
2022/09/27 02:37:22;;;;;;;1.45;0.50;;;15.10;99.90;;;;;;1039258;28;20632;-73
2022/09/27 02:37:54;;;;;;;1.17;0.57;;;15.10;99.90;;;;;;1039096;28;20812;-74
2022/09/27 02:38:25;;;;;;;0.40;0.40;;;15.10;99.90;;;;;;1036160;28;20679;-75
2022/09/27 02:38:55;;;;;;;0.87;0.47;;;15.00;99.90;;;;;;1039976;28;20741;-75
2022/09/27 02:39:27;;;;;;;1.20;0.70;;;15.10;99.90;;;;;;1036031;28;20695;-74
2022/09/27 02:39:57;;;;;;;4.25;0.82;;;15.10;99.90;;;;;;1036960;28;20023;-74
2022/09/27 02:40:34;;;;;;;2.20;0.80;;;15.10;99.90;;;;;;1035332;28;20029;-73
2022/09/27 02:41:13;;;;;;;2.70;0.95;;;15.10;99.90;;;;;;1036477;28;20124;-74
2022/09/27 02:41:43;;;;;;;2.58;0.82;;;15.10;99.90;;;;;;1040010;28;20021;-75
2022/09/27 02:42:14;;;;;;;2.80;0.77;;;15.10;99.90;;;;;;1039504;28;20120;-74
2022/09/27 02:42:45;;;;;;;2.67;0.90;;;15.10;99.90;;;;;;1039630;28;20049;-74
2022/09/27 02:43:19;;;;;;;1.08;0.70;;;15.10;99.90;;;;;;1039338;28;20425;-75
2022/09/27 02:43:54;;;;;;;2.55;0.80;;;15.10;99.90;;;;;;1039211;28;20014;-74
2022/09/27 02:44:26;;;;;;;3.90;0.73;;;15.10;99.90;;;;;;1037934;28;20056;-73
2022/09/27 02:44:57;;;;;;;1.27;0.68;;;15.10;99.90;;;;;;1036068;28;20026;-74
2022/09/27 02:46:02;;;;;;;1.73;0.80;;;15.00;99.90;;;;;;1039649;28;20064;-74
2022/09/27 02:46:47;;;;;;;1.67;0.70;;;15.00;99.90;;;;;;1027657;28;20023;-72
2022/09/27 02:47:48;;;;;;;2.97;0.75;;;15.00;99.90;;;;;;1033443;28;20092;-74
2022/09/27 02:48:38;;;;;;;2.20;0.90;;;15.00;99.90;;;;;;1033209;28;20037;-74
2022/09/27 02:49:30;;;;;;;1.52;0.70;;;15.00;99.90;;;;;;1039430;28;20021;-73
2022/09/27 02:50:33;;;;;;;1.50;0.65;;;15.00;99.90;;;;;;1038658;28;20115;-73
2022/09/27 02:51:11;;;;;;;1.30;0.60;;;15.00;99.90;;;;;;1038754;28;20025;-73
2022/09/27 02:52:02;;;;;;;1.85;0.70;;;15.00;99.90;;;;;;1039564;28;20027;-74
2022/09/27 02:52:48;;;;;;;2.20;0.80;;;15.00;99.90;;;;;;1034900;28;20088;-74
2022/09/27 02:53:33;;;;;;;2.70;0.90;;;14.90;99.90;;;;;;1043699;28;20100;-74
2022/09/27 02:54:25;;;;;;;1.02;0.63;;;15.00;99.90;;;;;;1038410;28;20060;-73
2022/09/27 02:55:18;;;;;;;1.85;0.52;;;15.00;99.90;;;;;;1031302;28;20265;-74
2022/09/27 02:56:00;;;;;;;2.22;0.80;;;15.00;99.90;;;;;;1031637;28;20056;-74
2022/09/27 02:56:42;;;;;;;3.38;0.90;;;14.90;99.90;;;;;;1034221;28;20096;-74
2022/09/27 02:57:35;;;;;;;1.23;0.70;;;14.90;99.90;;;;;;1039426;28;20136;-74
2022/09/27 02:58:34;;;;;;;1.25;0.77;;;14.90;99.90;;;;;;1033613;28;20032;-73
2022/09/27 02:59:18;;;;;;;2.90;0.80;;;14.90;99.90;;;;;;1031008;28;20023;-73
2022/09/27 03:00:06;;;;;;;2.55;0.77;;;14.90;99.90;;;;;;1031832;28;20848;-74
2022/09/27 03:01:15;;;;;;;1.45;0.80;;;14.90;99.90;;;;;;1038502;28;20024;-74
2022/09/27 03:01:55;;;;;;;4.47;1.00;;;14.90;99.90;;;;;;1034146;28;20033;-74
2022/09/27 03:02:43;;;;;;;3.40;1.10;;;14.90;99.90;;;;;;1035461;28;20668;-74
2022/09/27 03:03:34;;;;;;;2.53;0.88;;;14.90;99.90;;;;;;1030746;28;20031;-74
2022/09/27 03:04:13;;;;;;;1.20;0.68;;;14.90;99.90;;;;;;1030696;28;20609;-74
2022/09/27 03:04:54;;;;;;;2.13;0.70;;;14.90;99.90;;;;;;1030447;28;20406;-74
2022/09/27 03:05:28;;;;;;;1.75;0.70;;;14.90;99.90;;;;;;1032337;28;20023;-73
2022/09/27 03:06:03;;;;;;;2.55;1.30;;;14.90;99.90;;;;;;1039301;28;20076;-74
2022/09/27 03:06:36;;;;;;;3.63;0.80;;;14.90;99.90;;;;;;1043586;28;20084;-74
2022/09/27 03:07:07;;;;;;;3.97;0.90;;;14.90;99.90;;;;;;1041125;28;20017;-75
2022/09/27 03:07:38;;;;;;;0.80;0.45;;;14.90;99.90;;;;;;1038681;28;20026;-75
2022/09/27 03:08:11;;;;;;;1.75;0.40;;;14.90;99.90;;;;;;1034937;28;20029;-74
2022/09/27 03:08:43;;;;;;;1.27;0.68;;;14.90;99.90;;;;;;1035355;28;20029;-73
2022/09/27 03:09:21;;;;;;;1.52;0.77;;;14.90;99.90;;;;;;1039913;28;20028;-74
2022/09/27 03:09:54;;;;;;;2.38;0.82;;;14.90;99.90;;;;;;1030814;28;20018;-74
2022/09/27 03:10:27;;;;;;;1.00;0.80;;;14.80;99.90;;;;;;1033112;28;19998;-74
2022/09/27 03:10:58;;;;;;;0.82;0.70;;;14.90;99.90;;;;;;1037804;28;20028;-74
2022/09/27 03:11:28;;;;;;;2.07;0.90;;;14.80;99.90;;;;;;1035797;28;20021;-74
2022/09/27 03:11:59;;;;;;;1.90;0.70;;;14.90;99.90;;;;;;1034689;28;20021;-73
2022/09/27 03:12:29;;;;;;;1.50;0.60;;;14.90;99.90;;;;;;1034780;28;20025;-75
2022/09/27 03:13:00;;;;;;;1.97;0.80;;;14.90;99.90;;;;;;1039796;28;20025;-75
2022/09/27 03:13:31;;;;;;;3.05;1.05;;;14.90;99.90;;;;;;1038359;28;20018;-74
2022/09/27 03:14:01;;;;;;;2.57;0.80;;;14.90;99.90;;;;;;1039185;28;20017;-74
2022/09/27 03:14:32;;;;;;;2.10;0.87;;;14.90;99.90;;;;;;1038909;28;20850;-74
2022/09/27 03:15:04;;;;;;;1.00;0.90;;;14.90;99.90;;;;;;1038725;28;20009;-73
2022/09/27 03:15:34;;;;;;;1.88;0.70;;;14.90;99.90;;;;;;1040185;28;20029;-74
2022/09/27 03:16:05;;;;;;;2.97;0.90;;;14.90;99.90;;;;;;1037692;28;20017;-74
2022/09/27 03:16:36;;;;;;;1.95;0.90;;;14.90;99.90;;;;;;1035164;28;20026;-74
2022/09/27 03:17:06;;;;;;;2.90;1.00;;;14.90;99.90;;;;;;1035527;28;20018;-74
2022/09/27 03:17:37;;;;;;;2.57;0.93;;;14.90;99.90;;;;;;1035207;28;20469;-73
2022/09/27 03:18:07;;;;;;;2.03;0.80;;;14.90;99.90;;;;;;1035870;28;20024;-74
2022/09/27 03:18:38;;;;;;;2.60;1.07;;;14.90;99.90;;;;;;1034800;28;20505;-74
2022/09/27 03:19:09;;;;;;;3.50;1.03;;;14.90;99.90;;;;;;1034636;28;20508;-73
2022/09/27 03:19:40;;;;;;;2.30;0.63;;;14.90;99.90;;;;;;1034577;28;20397;-74